Time;durP1;ratioP1;P1;durP2;ratioP2;P2;SDS_P1;SDS_P2;PMS_P1;PMS_P2;Temp;Humidity;BMP_temperature;BMP_pressure;BME280_temperature;BME280_humidity;BME280_pressure;Samples;Min_cycle;Max_cycle;Signal;HPM_P1;HPM_P2
2022/07/11 00:02:03;;;;;;;0.10;0.10;;;16.20;99.90;;;;;;6241049;23;20020;-82
2022/07/11 00:04:29;;;;;;;0.15;0.15;;;16.30;99.90;;;;;;6214340;23;20046;-83
2022/07/11 00:06:56;;;;;;;0.10;0.10;;;16.20;99.90;;;;;;6241742;23;20475;-82
2022/07/11 00:09:21;;;;;;;0.20;0.20;;;16.20;99.90;;;;;;6240683;23;20098;-83
2022/07/11 00:11:48;;;;;;;0.10;0.10;;;16.30;99.90;;;;;;6214428;23;20052;-83
2022/07/11 00:14:14;;;;;;;0.13;0.13;;;16.20;99.90;;;;;;6239324;23;20023;-82
2022/07/11 00:16:39;;;;;;;0.10;0.10;;;16.10;99.90;;;;;;6240781;23;20023;-82
2022/07/11 00:19:05;;;;;;;0.10;0.10;;;16.20;99.90;;;;;;6213323;23;20028;-83
2022/07/11 00:21:33;;;;;;;0.10;0.10;;;16.20;99.90;;;;;;6245101;23;20230;-82
2022/07/11 00:23:59;;;;;;;0.10;0.10;;;16.20;99.90;;;;;;6256030;23;20162;-82
2022/07/11 00:26:25;;;;;;;0.15;0.15;;;16.20;99.90;;;;;;6224667;23;20021;-82
2022/07/11 00:28:51;;;;;;;0.10;0.10;;;16.20;99.90;;;;;;6250105;22;20054;-83
2022/07/11 00:31:16;;;;;;;0.10;0.10;;;16.10;99.90;;;;;;6260956;22;20047;-82
2022/07/11 00:33:42;;;;;;;0.20;0.20;;;16.10;99.90;;;;;;6257785;22;20012;-83
2022/07/11 00:36:08;;;;;;;0.13;0.13;;;16.10;99.90;;;;;;6261726;22;20429;-83
2022/07/11 00:38:34;;;;;;;0.20;0.20;;;16.10;99.90;;;;;;6219048;23;20020;-83
2022/07/11 00:41:00;;;;;;;0.20;0.20;;;16.10;99.90;;;;;;6241612;23;20529;-83
2022/07/11 00:43:39;;;;;;;0.20;0.20;;;16.10;99.90;;;;;;6240654;23;20008;-83
2022/07/11 00:46:07;;;;;;;0.10;0.10;;;16.10;99.90;;;;;;6240760;23;20445;-83
2022/07/11 00:48:33;;;;;;;0.15;0.15;;;16.20;99.90;;;;;;6213944;23;20310;-83
2022/07/11 00:51:01;;;;;;;0.20;0.20;;;16.00;99.90;;;;;;6240159;23;20019;-82
2022/07/11 00:53:27;;;;;;;0.10;0.10;;;16.10;99.90;;;;;;6213676;23;20008;-82
2022/07/11 00:55:54;;;;;;;0.20;0.20;;;16.10;99.90;;;;;;6214655;23;20338;-82
2022/07/11 00:58:19;;;;;;;0.20;0.20;;;16.10;99.90;;;;;;6239258;23;20016;-83
2022/07/11 01:00:45;;;;;;;0.13;0.13;;;16.10;99.90;;;;;;6214784;23;20023;-83
2022/07/11 01:03:12;;;;;;;0.10;0.10;;;16.00;99.90;;;;;;6254952;23;20035;-83
2022/07/11 01:05:37;;;;;;;0.20;0.20;;;16.10;99.90;;;;;;6232855;23;20016;-83
2022/07/11 01:08:04;;;;;;;0.10;0.10;;;16.00;99.90;;;;;;6258011;23;20023;-84
2022/07/11 01:10:31;;;;;;;0.10;0.10;;;16.00;99.90;;;;;;6226204;23;20027;-82
2022/07/11 01:12:57;;;;;;;0.10;0.10;;;16.00;99.90;;;;;;6221402;23;20016;-82
2022/07/11 01:15:23;;;;;;;0.10;0.10;;;16.00;99.90;;;;;;6251430;23;20020;-82
2022/07/11 01:17:49;;;;;;;0.10;0.10;;;16.00;99.90;;;;;;6236291;23;20092;-83
2022/07/11 01:20:15;;;;;;;0.20;0.20;;;16.00;99.90;;;;;;6225894;23;20325;-82
2022/07/11 01:22:48;;;;;;;0.17;0.17;;;16.00;99.90;;;;;;6242235;23;20074;-83
2022/07/11 01:25:29;;;;;;;0.10;0.10;;;16.00;99.90;;;;;;6214256;23;20060;-82
2022/07/11 01:27:59;;;;;;;0.20;0.20;;;16.00;99.90;;;;;;6212208;23;20019;-83
2022/07/11 01:30:26;;;;;;;0.20;0.20;;;16.00;99.90;;;;;;6212603;23;20452;-82
2022/07/11 01:32:53;;;;;;;0.20;0.20;;;16.10;99.90;;;;;;6240247;23;20047;-82
2022/07/11 01:35:20;;;;;;;0.10;0.10;;;16.00;99.90;;;;;;6214118;23;20024;-83
2022/07/11 01:37:45;;;;;;;0.10;0.10;;;16.00;99.90;;;;;;6213039;23;20027;-82
2022/07/11 01:40:11;;;;;;;0.10;0.10;;;16.00;99.90;;;;;;6213211;23;20020;-82
2022/07/11 01:42:37;;;;;;;0.10;0.10;;;16.00;99.90;;;;;;6239992;23;20154;-82
2022/07/11 01:45:03;;;;;;;0.10;0.10;;;16.00;99.90;;;;;;6212962;23;20078;-83
2022/07/11 01:47:29;;;;;;;0.10;0.10;;;16.00;99.90;;;;;;6213015;23;20462;-83
2022/07/11 01:49:55;;;;;;;0.10;0.10;;;16.00;99.90;;;;;;6239526;23;20019;-82
2022/07/11 01:52:21;;;;;;;0.13;0.13;;;16.00;99.90;;;;;;6214552;23;20009;-82
2022/07/11 01:54:47;;;;;;;0.20;0.20;;;16.00;99.90;;;;;;6238450;23;20301;-82
2022/07/11 01:57:13;;;;;;;0.10;0.10;;;16.00;99.90;;;;;;6241048;23;20012;-83
2022/07/11 01:59:39;;;;;;;0.10;0.10;;;16.00;99.90;;;;;;6238691;23;20012;-82
2022/07/11 02:02:04;;;;;;;0.20;0.20;;;16.00;99.90;;;;;;6212097;23;20024;-84
2022/07/11 02:04:30;;;;;;;0.10;0.10;;;16.00;99.90;;;;;;6239047;23;20015;-83
2022/07/11 02:06:56;;;;;;;0.20;0.20;;;16.00;99.90;;;;;;6239621;23;20062;-81
2022/07/11 02:09:21;;;;;;;0.20;0.20;;;16.00;99.90;;;;;;6211185;23;20405;-82
2022/07/11 02:11:47;;;;;;;0.20;0.20;;;16.00;99.90;;;;;;6241342;23;20103;-82
2022/07/11 02:14:13;;;;;;;0.13;0.13;;;16.00;99.90;;;;;;6212793;23;20091;-82
2022/07/11 02:16:39;;;;;;;0.10;0.10;;;16.00;99.90;;;;;;6212138;23;20020;-82
2022/07/11 02:19:05;;;;;;;0.13;0.13;;;15.90;99.90;;;;;;6214434;23;20055;-81
2022/07/11 02:21:34;;;;;;;0.20;0.20;;;16.00;99.90;;;;;;6213243;23;20024;-82
2022/07/11 02:23:59;;;;;;;0.20;0.20;;;15.90;99.90;;;;;;6242733;23;20023;-82
2022/07/11 02:26:25;;;;;;;0.20;0.20;;;16.00;99.90;;;;;;6228001;23;20026;-82
2022/07/11 02:28:51;;;;;;;0.10;0.10;;;16.00;99.90;;;;;;6247820;23;20115;-83
2022/07/11 02:31:16;;;;;;;0.15;0.15;;;16.00;99.90;;;;;;6233191;23;20024;-82
2022/07/11 02:33:42;;;;;;;0.17;0.17;;;16.00;99.90;;;;;;6250163;23;20183;-82
2022/07/11 02:36:10;;;;;;;0.10;0.10;;;16.00;99.90;;;;;;6241337;23;20015;-82
2022/07/11 02:38:36;;;;;;;0.10;0.10;;;15.90;99.90;;;;;;6239998;23;20500;-82
2022/07/11 02:41:02;;;;;;;0.20;0.20;;;15.90;99.90;;;;;;6239734;23;20084;-82
2022/07/11 02:43:27;;;;;;;0.15;0.15;;;16.00;99.90;;;;;;6211033;23;20008;-82
2022/07/11 02:45:54;;;;;;;0.10;0.10;;;15.90;99.90;;;;;;6238174;23;20024;-81
2022/07/11 02:48:20;;;;;;;0.10;0.10;;;16.00;99.90;;;;;;6212499;23;20027;-82
2022/07/11 02:50:48;;;;;;;0.20;0.20;;;16.00;99.90;;;;;;6211212;23;20019;-82
2022/07/11 02:53:14;;;;;;;0.13;0.13;;;15.90;99.90;;;;;;6237720;23;20348;-82
2022/07/11 02:55:40;;;;;;;0.20;0.20;;;15.90;99.90;;;;;;6240390;23;20020;-82
2022/07/11 02:58:06;;;;;;;0.20;0.20;;;15.90;99.90;;;;;;6237581;23;20043;-82
2022/07/11 03:00:31;;;;;;;0.20;0.20;;;16.00;99.90;;;;;;6239371;23;20020;-82
2022/07/11 03:02:57;;;;;;;0.13;0.13;;;16.00;99.90;;;;;;6210836;23;20024;-82
2022/07/11 03:05:23;;;;;;;0.10;0.10;;;16.00;99.90;;;;;;6211296;23;20090;-82
2022/07/11 03:07:49;;;;;;;0.15;0.15;;;16.00;99.90;;;;;;6239064;23;20020;-81
2022/07/11 03:10:15;;;;;;;0.10;0.10;;;16.00;99.90;;;;;;6239253;23;20020;-81
2022/07/11 03:12:41;;;;;;;0.20;0.20;;;16.00;99.90;;;;;;6238676;23;20087;-82
2022/07/11 03:15:08;;;;;;;0.10;0.10;;;16.00;99.90;;;;;;6211473;23;20085;-83
2022/07/11 03:17:35;;;;;;;0.10;0.10;;;16.00;99.90;;;;;;6210501;23;20027;-82
2022/07/11 03:20:02;;;;;;;0.10;0.10;;;15.90;99.90;;;;;;6211245;23;20094;-81
2022/07/11 03:22:27;;;;;;;0.20;0.20;;;16.00;99.90;;;;;;6212398;23;20066;-82
2022/07/11 03:24:53;;;;;;;0.10;0.10;;;15.90;99.90;;;;;;6237599;23;20798;-82
2022/07/11 03:27:19;;;;;;;0.10;0.10;;;15.90;99.90;;;;;;6212309;23;20016;-81
2022/07/11 03:29:44;;;;;;;0.20;0.20;;;16.00;99.90;;;;;;6238864;23;20020;-81
2022/07/11 03:32:10;;;;;;;0.10;0.10;;;16.00;99.90;;;;;;6238703;23;20145;-82
2022/07/11 03:34:36;;;;;;;0.10;0.10;;;16.00;99.90;;;;;;6210092;23;20047;-82
2022/07/11 03:37:02;;;;;;;0.10;0.10;;;15.90;99.90;;;;;;6238461;23;20022;-82
2022/07/11 03:39:28;;;;;;;0.10;0.10;;;16.00;99.90;;;;;;6210567;23;20047;-82
2022/07/11 03:41:54;;;;;;;0.13;0.13;;;15.90;99.90;;;;;;6212291;23;20020;-82
2022/07/11 03:44:20;;;;;;;0.20;0.20;;;15.90;99.90;;;;;;6241138;23;20560;-82
2022/07/11 03:46:46;;;;;;;0.10;0.10;;;15.90;99.90;;;;;;6242754;23;20016;-82
2022/07/11 03:49:11;;;;;;;0.10;0.10;;;15.90;99.90;;;;;;6212697;23;20022;-82
2022/07/11 03:51:37;;;;;;;0.15;0.15;;;15.90;99.90;;;;;;6240009;23;20048;-82
2022/07/11 03:54:03;;;;;;;0.10;0.10;;;15.90;99.90;;;;;;6242685;23;20020;-82
2022/07/11 03:56:28;;;;;;;0.20;0.20;;;15.90;99.90;;;;;;6247012;23;20043;-81
2022/07/11 03:58:54;;;;;;;0.20;0.20;;;15.90;99.90;;;;;;6212089;23;20031;-82
2022/07/11 04:01:20;;;;;;;0.10;0.10;;;15.80;99.90;;;;;;6238755;23;20020;-82
2022/07/11 04:03:46;;;;;;;0.10;0.10;;;15.90;99.90;;;;;;6239833;23;20012;-83
2022/07/11 04:06:13;;;;;;;0.20;0.20;;;15.90;99.90;;;;;;6238253;23;20421;-83
2022/07/11 04:08:39;;;;;;;0.10;0.10;;;15.90;99.90;;;;;;6226720;23;20594;-83
2022/07/11 04:11:05;;;;;;;0.17;0.17;;;15.90;99.90;;;;;;6239782;23;20020;-82
2022/07/11 04:13:30;;;;;;;0.10;0.10;;;15.90;99.90;;;;;;6240690;23;20413;-82
2022/07/11 04:15:56;;;;;;;0.20;0.20;;;15.90;99.90;;;;;;6213763;23;20020;-82
2022/07/11 04:18:22;;;;;;;0.10;0.10;;;15.90;99.90;;;;;;6241937;23;20087;-82
2022/07/11 04:20:49;;;;;;;0.10;0.10;;;15.90;99.90;;;;;;6213860;23;20042;-82
2022/07/11 04:23:15;;;;;;;0.10;0.10;;;16.00;99.90;;;;;;6257903;23;20020;-81
2022/07/11 04:25:41;;;;;;;0.20;0.20;;;15.90;99.90;;;;;;6251408;23;20027;-81
2022/07/11 04:28:07;;;;;;;0.10;0.10;;;16.00;99.90;;;;;;6260763;23;20055;-82
2022/07/11 04:30:33;;;;;;;0.10;0.10;;;16.00;99.90;;;;;;6249974;23;20030;-82
2022/07/11 04:32:59;;;;;;;0.10;0.10;;;15.90;99.90;;;;;;6215864;23;20048;-81
2022/07/11 04:35:28;;;;;;;0.10;0.10;;;16.00;99.90;;;;;;6241296;23;20688;-81
2022/07/11 04:37:54;;;;;;;0.20;0.20;;;15.90;99.90;;;;;;6214273;23;20078;-81
2022/07/11 04:40:23;;;;;;;0.10;0.10;;;15.90;99.90;;;;;;6214790;23;20376;-81
2022/07/11 04:42:49;;;;;;;0.10;0.10;;;15.90;99.90;;;;;;6239439;23;20012;-81
2022/07/11 04:45:15;;;;;;;0.13;0.13;;;15.90;99.90;;;;;;6240668;23;20090;-81
2022/07/11 04:47:41;;;;;;;0.10;0.10;;;15.90;99.90;;;;;;6240018;23;20020;-81
2022/07/11 04:50:08;;;;;;;0.10;0.10;;;15.90;99.90;;;;;;6240080;23;20030;-81
2022/07/11 04:52:34;;;;;;;0.20;0.20;;;16.00;99.90;;;;;;6214407;23;20016;-82
2022/07/11 04:54:59;;;;;;;0.15;0.15;;;16.00;99.90;;;;;;6241081;23;20012;-81
2022/07/11 04:57:26;;;;;;;0.20;0.20;;;15.90;99.90;;;;;;6240703;23;20102;-81
2022/07/11 04:59:52;;;;;;;0.10;0.10;;;16.00;99.90;;;;;;6211536;23;20023;-82
2022/07/11 05:02:18;;;;;;;0.10;0.10;;;16.00;99.90;;;;;;6211563;23;20099;-81
2022/07/11 05:04:44;;;;;;;0.20;0.20;;;16.00;99.90;;;;;;6240465;23;20350;-81
2022/07/11 05:07:10;;;;;;;0.10;0.10;;;16.00;99.90;;;;;;6241013;23;20019;-82
2022/07/11 05:09:35;;;;;;;0.10;0.10;;;16.00;99.90;;;;;;6240626;23;20016;-82
2022/07/11 05:12:01;;;;;;;0.10;0.10;;;16.00;99.90;;;;;;6213224;23;20080;-81
2022/07/11 05:14:27;;;;;;;0.20;0.20;;;16.10;99.90;;;;;;6213845;23;20044;-82
2022/07/11 05:16:52;;;;;;;0.20;0.20;;;16.10;99.90;;;;;;6240843;23;20073;-82
2022/07/11 05:19:18;;;;;;;0.17;0.17;;;16.10;99.90;;;;;;6239735;23;20020;-81
2022/07/11 05:21:44;;;;;;;0.20;0.20;;;16.10;99.90;;;;;;6242410;23;20018;-83
2022/07/11 05:24:09;;;;;;;0.20;0.20;;;16.20;99.90;;;;;;6240466;23;20020;-83
2022/07/11 05:26:36;;;;;;;0.20;0.20;;;16.20;99.90;;;;;;6241435;23;20038;-85
2022/07/11 05:29:01;;;;;;;0.10;0.10;;;16.20;99.90;;;;;;6240325;23;20015;-83
2022/07/11 05:31:27;;;;;;;0.10;0.10;;;16.30;99.90;;;;;;6212971;23;20024;-84
2022/07/11 05:33:53;;;;;;;0.20;0.20;;;16.30;99.90;;;;;;6214128;23;20039;-83
2022/07/11 05:36:19;;;;;;;0.10;0.10;;;16.30;99.90;;;;;;6214935;23;20036;-84
2022/07/11 05:38:46;;;;;;;0.15;0.15;;;16.30;99.90;;;;;;6240689;23;20070;-84
2022/07/11 05:41:12;;;;;;;0.17;0.17;;;16.30;99.90;;;;;;6241553;23;20016;-83
2022/07/11 05:43:37;;;;;;;0.10;0.10;;;16.30;99.90;;;;;;6183473;23;20286;-84
2022/07/11 05:46:09;;;;;;;0.17;0.17;;;16.30;99.90;;;;;;6208142;23;20021;-84
2022/07/11 05:48:34;;;;;;;0.10;0.10;;;16.30;99.90;;;;;;6239136;23;20460;-85
2022/07/11 05:51:00;;;;;;;0.10;0.10;;;16.30;99.90;;;;;;6212942;23;20019;-86
2022/07/11 05:53:25;;;;;;;0.17;0.17;;;16.30;99.90;;;;;;6212101;23;20028;-85
2022/07/11 05:55:51;;;;;;;0.20;0.20;;;16.30;99.90;;;;;;6239362;23;20008;-85
2022/07/11 05:58:16;;;;;;;0.20;0.20;;;16.40;99.90;;;;;;6239750;23;20017;-83
2022/07/11 06:00:42;;;;;;;0.20;0.20;;;16.40;99.90;;;;;;6238287;23;20020;-87
2022/07/11 06:03:08;;;;;;;0.10;0.10;;;16.40;99.90;;;;;;6236984;23;20051;-84
2022/07/11 06:05:33;;;;;;;0.20;0.20;;;16.40;99.90;;;;;;6214467;23;20012;-84
2022/07/11 06:10:43;;;;;;;0.20;0.20;;;16.50;99.90;;;;;;6236078;23;20028;-79
2022/07/11 06:13:09;;;;;;;0.10;0.10;;;16.50;99.90;;;;;;6236351;23;20024;-80
2022/07/11 06:15:34;;;;;;;0.10;0.10;;;16.50;99.90;;;;;;6213033;23;20507;-81
2022/07/11 06:18:00;;;;;;;0.10;0.10;;;16.60;99.90;;;;;;6217815;23;20020;-82
2022/07/11 06:20:26;;;;;;;0.10;0.10;;;16.60;99.90;;;;;;6219009;23;20030;-80
2022/07/11 06:22:53;;;;;;;0.10;0.10;;;16.70;99.90;;;;;;6241343;23;20534;-78
2022/07/11 06:25:18;;;;;;;0.20;0.20;;;16.60;99.90;;;;;;6225498;23;20062;-80
2022/07/11 06:27:44;;;;;;;0.10;0.10;;;16.70;99.90;;;;;;6213618;23;20020;-81
2022/07/11 06:30:10;;;;;;;0.10;0.10;;;16.70;99.90;;;;;;6240251;23;20023;-82
2022/07/11 06:32:36;;;;;;;0.10;0.10;;;16.70;99.90;;;;;;6238967;23;20067;-80
2022/07/11 06:35:01;;;;;;;0.10;0.10;;;16.70;99.90;;;;;;6237401;23;20056;-80
2022/07/11 06:37:27;;;;;;;0.20;0.20;;;16.70;99.90;;;;;;6240249;23;20048;-80
2022/07/11 06:39:52;;;;;;;0.10;0.10;;;16.70;99.90;;;;;;6240075;23;20015;-82
2022/07/11 06:42:18;;;;;;;0.20;0.20;;;16.70;99.90;;;;;;6238894;23;20066;-80
2022/07/11 06:44:43;;;;;;;0.10;0.10;;;16.70;99.90;;;;;;6210317;23;20341;-81
2022/07/11 06:47:09;;;;;;;0.10;0.10;;;16.80;99.90;;;;;;6212552;23;20019;-80
2022/07/11 06:49:35;;;;;;;0.10;0.10;;;16.80;99.90;;;;;;6211748;23;20024;-81
2022/07/11 06:52:00;;;;;;;0.20;0.20;;;16.80;99.90;;;;;;6240840;23;20523;-81
2022/07/11 06:54:26;;;;;;;0.20;0.20;;;16.80;99.90;;;;;;6239563;23;20016;-81
2022/07/11 06:56:52;;;;;;;0.10;0.10;;;16.90;99.90;;;;;;6239364;23;20027;-81
2022/07/11 06:59:17;;;;;;;0.20;0.20;;;16.90;99.90;;;;;;6237880;23;20012;-81
2022/07/11 07:01:43;;;;;;;0.10;0.10;;;16.90;99.90;;;;;;6240846;23;20318;-80
2022/07/11 07:04:08;;;;;;;0.10;0.10;;;17.00;99.90;;;;;;6212686;23;20016;-80
2022/07/11 07:06:34;;;;;;;0.10;0.10;;;17.00;99.90;;;;;;6212929;23;20016;-81
2022/07/11 07:09:02;;;;;;;0.10;0.10;;;17.00;99.90;;;;;;6240354;23;20016;-81
2022/07/11 07:11:28;;;;;;;0.20;0.20;;;17.00;99.90;;;;;;6211919;23;20022;-81
2022/07/11 07:13:54;;;;;;;0.20;0.20;;;17.00;99.90;;;;;;6237780;23;20276;-81
2022/07/11 07:16:19;;;;;;;0.10;0.10;;;17.10;99.90;;;;;;6239514;23;20074;-81
2022/07/11 07:18:46;;;;;;;0.20;0.20;;;17.10;99.90;;;;;;6237827;23;20540;-82
2022/07/11 07:21:12;;;;;;;0.20;0.20;;;17.20;99.90;;;;;;6213276;23;20027;-82
2022/07/11 07:23:38;;;;;;;0.20;0.20;;;17.20;99.90;;;;;;6239267;23;20008;-82
2022/07/11 07:26:04;;;;;;;0.20;0.20;;;17.20;99.90;;;;;;6211679;23;20039;-81
2022/07/11 07:28:30;;;;;;;0.10;0.10;;;17.20;99.90;;;;;;6236953;23;20066;-81
2022/07/11 07:30:56;;;;;;;0.20;0.20;;;17.20;99.90;;;;;;6237988;23;20107;-82
2022/07/11 07:33:22;;;;;;;0.10;0.10;;;17.20;99.90;;;;;;6211745;23;20460;-82
2022/07/11 07:35:48;;;;;;;0.20;0.20;;;17.30;99.90;;;;;;6239312;23;20020;-82
2022/07/11 07:38:13;;;;;;;0.10;0.10;;;17.30;99.90;;;;;;6211097;23;20046;-81
2022/07/11 07:40:39;;;;;;;0.20;0.20;;;17.40;99.90;;;;;;6239862;23;20099;-82
2022/07/11 07:43:06;;;;;;;0.20;0.20;;;17.40;99.90;;;;;;6208187;23;20025;-82
2022/07/11 07:45:32;;;;;;;0.20;0.20;;;17.40;99.90;;;;;;6238580;23;20341;-82
2022/07/11 07:47:58;;;;;;;0.20;0.20;;;17.40;99.90;;;;;;6241039;23;20020;-81
2022/07/11 07:50:24;;;;;;;0.20;0.20;;;17.40;99.90;;;;;;6215100;23;20027;-81
2022/07/11 07:52:50;;;;;;;0.13;0.13;;;17.40;99.90;;;;;;6240767;23;20134;-81
2022/07/11 07:55:16;;;;;;;0.15;0.15;;;17.50;99.90;;;;;;6215410;23;20048;-80
2022/07/11 07:57:42;;;;;;;0.20;0.20;;;17.50;99.90;;;;;;6242315;23;20016;-80
2022/07/11 08:02:53;;;;;;;0.20;0.20;;;17.60;99.90;;;;;;6241468;23;20028;-82
2022/07/11 08:05:20;;;;;;;0.20;0.20;;;17.70;99.90;;;;;;6214854;23;20437;-80
2022/07/11 08:07:46;;;;;;;0.10;0.10;;;17.70;99.90;;;;;;6211724;23;20474;-82
2022/07/11 08:10:15;;;;;;;0.17;0.17;;;17.80;99.90;;;;;;6241585;23;20139;-81
2022/07/11 08:12:41;;;;;;;0.10;0.10;;;17.90;99.90;;;;;;6213878;23;20061;-81
2022/07/11 08:15:07;;;;;;;0.20;0.20;;;17.90;99.90;;;;;;6217313;23;20020;-81
2022/07/11 08:17:33;;;;;;;0.20;0.20;;;17.90;99.90;;;;;;6251537;23;20024;-80
2022/07/11 08:19:58;;;;;;;0.20;0.20;;;18.00;99.90;;;;;;6222849;23;20010;-80
2022/07/11 08:22:25;;;;;;;0.10;0.10;;;18.00;99.90;;;;;;6257097;23;20274;-81
2022/07/11 08:24:50;;;;;;;0.20;0.20;;;18.00;99.90;;;;;;6216968;23;20012;-81
2022/07/11 08:27:16;;;;;;;0.20;0.20;;;17.90;99.90;;;;;;6242849;23;20023;-81
2022/07/11 08:29:42;;;;;;;0.20;0.20;;;17.90;99.90;;;;;;6242379;23;20026;-80
2022/07/11 08:32:07;;;;;;;0.20;0.20;;;17.90;99.90;;;;;;6241274;23;20040;-80
2022/07/11 08:34:33;;;;;;;0.20;0.20;;;17.90;99.90;;;;;;6240299;23;20020;-80
2022/07/11 08:36:59;;;;;;;0.20;0.20;;;17.90;99.90;;;;;;6215172;23;20016;-81
2022/07/11 08:39:27;;;;;;;0.15;0.15;;;17.90;99.90;;;;;;6245520;23;20478;-79
2022/07/11 08:41:54;;;;;;;0.20;0.20;;;18.00;99.90;;;;;;6241714;23;20063;-79
2022/07/11 08:44:20;;;;;;;0.20;0.20;;;18.10;99.90;;;;;;6213947;23;20012;-79
2022/07/11 08:46:46;;;;;;;0.20;0.20;;;18.10;99.90;;;;;;6242174;23;20465;-80
2022/07/11 08:49:12;;;;;;;0.20;0.20;;;18.20;99.90;;;;;;6239831;23;20368;-79
2022/07/11 08:51:38;;;;;;;0.20;0.20;;;18.20;99.90;;;;;;6215109;23;20012;-79
2022/07/11 08:54:04;;;;;;;0.10;0.10;;;18.20;99.90;;;;;;6239585;23;20019;-79
2022/07/11 08:56:30;;;;;;;0.20;0.20;;;18.20;99.90;;;;;;6213571;23;20012;-78
2022/07/11 08:58:59;;;;;;;0.20;0.20;;;18.20;99.90;;;;;;6212300;23;20467;-79
2022/07/11 09:01:29;;;;;;;0.10;0.10;;;18.20;99.90;;;;;;6238754;23;20020;-80
2022/07/11 09:03:55;;;;;;;0.20;0.20;;;18.20;99.90;;;;;;6212280;23;20016;-80
2022/07/11 09:06:21;;;;;;;0.20;0.20;;;18.30;99.90;;;;;;6214275;23;20087;-79
2022/07/11 09:08:46;;;;;;;0.20;0.20;;;18.30;99.90;;;;;;6213819;23;20047;-79
2022/07/11 09:11:12;;;;;;;0.10;0.10;;;18.20;99.90;;;;;;6239988;23;20020;-80
2022/07/11 09:13:38;;;;;;;0.20;0.20;;;18.30;99.90;;;;;;6211933;23;20058;-80
2022/07/11 09:16:07;;;;;;;0.20;0.20;;;18.30;99.90;;;;;;6239396;23;20043;-83
2022/07/11 09:18:36;;;;;;;0.20;0.20;;;18.40;99.90;;;;;;6237855;23;20095;-81
2022/07/11 09:26:42;;;;;;;0.10;0.10;;;18.40;99.90;;;;;;6244889;23;20024;-83
2022/07/11 09:29:10;;;;;;;0.20;0.20;;;18.40;99.90;;;;;;6245510;23;20027;-82
2022/07/11 09:31:38;;;;;;;0.10;0.10;;;18.30;99.90;;;;;;6214270;23;20039;-82
2022/07/11 09:34:11;;;;;;;0.20;0.20;;;18.30;99.90;;;;;;6259864;23;20136;-81
2022/07/11 09:36:54;;;;;;;0.15;0.15;;;18.30;99.90;;;;;;6255494;22;20023;-82
2022/07/11 09:39:22;;;;;;;0.15;0.15;;;18.30;99.90;;;;;;6216782;23;20047;-83
2022/07/11 09:41:50;;;;;;;0.20;0.20;;;18.20;99.90;;;;;;6245373;23;20036;-82
2022/07/11 09:44:18;;;;;;;0.20;0.20;;;18.20;99.90;;;;;;6212995;23;20355;-81
2022/07/11 09:46:46;;;;;;;0.20;0.20;;;18.20;99.90;;;;;;6213085;23;20016;-82
2022/07/11 09:49:13;;;;;;;0.10;0.10;;;18.20;99.90;;;;;;6237869;23;20020;-82
2022/07/11 09:51:39;;;;;;;0.13;0.13;;;18.20;99.90;;;;;;6247411;23;20035;-82
2022/07/11 09:54:06;;;;;;;0.10;0.10;;;18.20;99.90;;;;;;6211791;23;20512;-81
2022/07/11 09:56:43;;;;;;;0.10;0.10;;;18.30;99.90;;;;;;6211919;23;20358;-82
2022/07/11 09:59:12;;;;;;;0.15;0.15;;;18.30;99.90;;;;;;6239888;23;20031;-83
2022/07/11 10:01:39;;;;;;;0.10;0.10;;;18.30;99.90;;;;;;6214278;23;20028;-83
2022/07/11 10:04:09;;;;;;;0.10;0.10;;;18.30;99.90;;;;;;6241676;23;20445;-83
2022/07/11 10:06:36;;;;;;;0.10;0.10;;;18.30;99.90;;;;;;6241712;23;20020;-84
2022/07/11 10:09:04;;;;;;;0.15;0.15;;;18.20;99.90;;;;;;6255808;23;20016;-84
2022/07/11 10:11:31;;;;;;;0.13;0.13;;;18.10;99.90;;;;;;6258922;23;20052;-84
2022/07/11 10:13:59;;;;;;;0.17;0.17;;;18.10;99.90;;;;;;6260459;23;20064;-83
2022/07/11 10:16:39;;;;;;;0.13;0.13;;;18.20;99.90;;;;;;6266530;22;20070;-83
2022/07/11 10:19:14;;;;;;;0.10;0.10;;;18.10;99.90;;;;;;6255691;23;20024;-82
2022/07/11 10:21:48;;;;;;;0.20;0.20;;;18.20;99.90;;;;;;6228287;23;20055;-84
2022/07/11 10:24:16;;;;;;;0.20;0.20;;;18.20;99.90;;;;;;6246611;23;20070;-83
2022/07/11 10:27:10;;;;;;;0.20;0.20;;;18.30;99.90;;;;;;6241781;23;20016;-83
2022/07/11 10:29:44;;;;;;;0.10;0.10;;;18.30;99.90;;;;;;6241480;23;20050;-83
2022/07/11 10:32:11;;;;;;;0.17;0.17;;;18.30;99.90;;;;;;6214773;23;20054;-84
2022/07/11 10:34:37;;;;;;;0.17;0.17;;;18.30;99.90;;;;;;6240619;23;20020;-85
2022/07/11 10:37:05;;;;;;;0.20;0.20;;;18.40;99.90;;;;;;6213306;23;20019;-83
2022/07/11 10:39:34;;;;;;;0.20;0.20;;;18.40;99.90;;;;;;6241833;23;20020;-83
2022/07/11 10:42:02;;;;;;;0.20;0.20;;;18.40;99.90;;;;;;6241375;23;20059;-84
2022/07/11 10:44:47;;;;;;;0.20;0.20;;;18.40;99.90;;;;;;6241563;23;20016;-84
2022/07/11 10:47:35;;;;;;;0.20;0.20;;;18.40;99.90;;;;;;6214857;23;20023;-84
2022/07/11 10:50:10;;;;;;;0.10;0.10;;;18.30;99.90;;;;;;6239662;23;20031;-84
2022/07/11 10:52:39;;;;;;;0.20;0.20;;;18.30;99.90;;;;;;6215425;23;20506;-84
2022/07/11 10:55:31;;;;;;;0.10;0.10;;;18.30;99.90;;;;;;6232574;23;20024;-83
2022/07/11 10:57:59;;;;;;;0.10;0.10;;;18.30;99.90;;;;;;6250889;23;20035;-84
2022/07/11 11:00:25;;;;;;;0.20;0.20;;;18.30;99.90;;;;;;6215925;23;20035;-85
2022/07/11 11:03:20;;;;;;;0.20;0.20;;;18.40;99.90;;;;;;6240869;23;20436;-83
2022/07/11 11:05:53;;;;;;;0.10;0.10;;;18.50;99.90;;;;;;6219914;23;20054;-85
2022/07/11 11:08:31;;;;;;;0.20;0.20;;;18.50;99.90;;;;;;6242543;23;20402;-84
2022/07/11 11:11:02;;;;;;;0.20;0.20;;;18.70;99.90;;;;;;6241524;23;20416;-84
2022/07/11 11:13:29;;;;;;;0.10;0.10;;;18.60;99.90;;;;;;6240267;23;20017;-84
2022/07/11 11:15:56;;;;;;;0.20;0.20;;;18.70;99.90;;;;;;6213736;23;20027;-85
2022/07/11 11:18:22;;;;;;;0.20;0.20;;;18.70;99.90;;;;;;6211130;23;20119;-86
2022/07/11 11:21:09;;;;;;;0.20;0.20;;;18.70;99.90;;;;;;6212876;23;20024;-83
2022/07/11 11:23:40;;;;;;;0.20;0.20;;;18.70;99.90;;;;;;6211695;23;20020;-83
2022/07/11 11:26:06;;;;;;;0.10;0.10;;;18.70;99.90;;;;;;6240826;23;20027;-82
2022/07/11 11:28:32;;;;;;;0.10;0.10;;;18.80;99.90;;;;;;6238610;23;20388;-83
2022/07/11 11:31:02;;;;;;;0.10;0.10;;;18.80;99.90;;;;;;6213282;23;20070;-84
2022/07/11 11:33:30;;;;;;;0.20;0.20;;;18.80;99.90;;;;;;6239427;23;20050;-84
2022/07/11 11:36:09;;;;;;;0.20;0.20;;;18.80;99.90;;;;;;6240091;23;20016;-84
2022/07/11 11:38:40;;;;;;;0.10;0.10;;;18.90;99.90;;;;;;6213189;23;20039;-84
2022/07/11 11:41:09;;;;;;;0.10;0.10;;;18.90;99.90;;;;;;6215057;23;20028;-83
2022/07/11 11:43:42;;;;;;;0.15;0.15;;;18.90;99.90;;;;;;6240872;23;20012;-84
2022/07/11 11:46:08;;;;;;;0.20;0.20;;;18.90;99.90;;;;;;6212095;23;20020;-84
2022/07/11 11:48:38;;;;;;;0.10;0.10;;;18.90;99.90;;;;;;6211933;23;20023;-85
2022/07/11 11:51:06;;;;;;;0.10;0.10;;;18.80;99.90;;;;;;6238240;23;20047;-84
2022/07/11 11:53:53;;;;;;;0.10;0.10;;;18.80;99.90;;;;;;6213450;23;20017;-84
2022/07/11 11:56:30;;;;;;;0.10;0.10;;;18.90;99.90;;;;;;6214055;23;20056;-85
2022/07/11 11:59:01;;;;;;;0.20;0.20;;;18.90;99.90;;;;;;6240796;23;20341;-84
2022/07/11 12:01:31;;;;;;;0.17;0.17;;;19.00;99.90;;;;;;6216444;23;20024;-85
2022/07/11 12:03:59;;;;;;;0.20;0.20;;;19.00;99.90;;;;;;6216909;23;20083;-84
2022/07/11 12:06:28;;;;;;;0.20;0.20;;;19.00;99.90;;;;;;6256948;23;20031;-85
2022/07/11 12:09:11;;;;;;;0.20;0.20;;;19.00;99.90;;;;;;6252071;22;20016;-86
2022/07/11 12:11:42;;;;;;;0.20;0.20;;;19.00;99.90;;;;;;6260511;23;20531;-85
2022/07/11 12:14:10;;;;;;;0.10;0.10;;;19.00;99.90;;;;;;6220421;23;20103;-83
2022/07/11 12:16:46;;;;;;;0.10;0.10;;;19.00;99.90;;;;;;6216515;23;20012;-83
2022/07/11 12:19:21;;;;;;;0.17;0.17;;;19.00;99.90;;;;;;6212447;23;20035;-84
2022/07/11 12:21:53;;;;;;;0.10;0.10;;;19.00;99.90;;;;;;6241152;23;20023;-85
2022/07/11 12:24:23;;;;;;;0.10;0.10;;;19.00;99.90;;;;;;6239970;23;20063;-84
2022/07/11 12:26:50;;;;;;;0.10;0.10;;;19.00;99.90;;;;;;6212562;23;20113;-84
2022/07/11 12:29:20;;;;;;;0.15;0.15;;;19.00;99.90;;;;;;6212641;23;20471;-84
2022/07/11 12:31:53;;;;;;;0.10;0.10;;;19.00;99.90;;;;;;6213693;23;20016;-84
2022/07/11 12:34:21;;;;;;;0.17;0.17;;;19.10;99.90;;;;;;6240709;23;20349;-84
2022/07/11 12:36:52;;;;;;;0.20;0.20;;;19.10;99.90;;;;;;6242522;23;20023;-83
2022/07/11 12:39:26;;;;;;;0.20;0.20;;;19.10;99.90;;;;;;6215907;23;20102;-86
2022/07/11 12:41:52;;;;;;;0.20;0.20;;;19.20;99.90;;;;;;6243131;23;20087;-84
2022/07/11 12:47:11;;;;;;;0.15;0.15;;;19.10;99.90;;;;;;6262158;23;20024;-83
2022/07/11 12:49:40;;;;;;;0.20;0.20;;;19.10;99.90;;;;;;6254267;23;20016;-81
2022/07/11 12:52:06;;;;;;;0.10;0.10;;;19.20;99.90;;;;;;6246062;23;20288;-82
2022/07/11 12:54:33;;;;;;;0.20;0.20;;;19.20;99.90;;;;;;6216405;23;20024;-82
2022/07/11 12:57:03;;;;;;;0.20;0.20;;;19.30;99.90;;;;;;6242666;23;20069;-82
2022/07/11 12:59:34;;;;;;;0.20;0.20;;;19.30;99.90;;;;;;6213617;23;20154;-82
2022/07/11 13:02:07;;;;;;;0.15;0.15;;;19.30;99.90;;;;;;6239650;23;20023;-85
2022/07/11 13:04:38;;;;;;;0.10;0.10;;;19.30;99.90;;;;;;6212597;23;20447;-80